createdAt,value
2018-04-19T00:00:18.462Z,80.2
2018-04-19T00:01:20.228Z,80.2
2018-04-19T00:02:22.306Z,80.4
2018-04-19T00:03:24.076Z,80.5
2018-04-19T00:04:25.780Z,80.2
2018-04-19T00:05:27.564Z,80.2
2018-04-19T00:06:29.316Z,80.3
2018-04-19T00:07:31.030Z,80.0
2018-04-19T00:08:32.944Z,80.2
2018-04-19T00:09:34.621Z,79.8
2018-04-19T00:10:36.274Z,80.2
2018-04-19T00:11:37.922Z,80.2
2018-04-19T00:12:39.846Z,80.5
2018-04-19T00:13:41.719Z,81.2
2018-04-19T00:14:43.426Z,81.0
2018-04-19T00:15:45.163Z,81.2
2018-04-19T00:16:46.836Z,80.9
2018-04-19T00:17:48.514Z,80.8
2018-04-19T00:18:50.171Z,80.5
2018-04-19T00:19:51.919Z,81.5
2018-04-19T00:20:53.687Z,81.6
2018-04-19T00:21:55.414Z,81.8
2018-04-19T00:22:57.358Z,82.2
2018-04-19T00:23:59.207Z,82.0
2018-04-19T00:25:00.952Z,82.2
2018-04-19T00:26:02.521Z,82.4
2018-04-19T00:27:04.327Z,82.0
2018-04-19T00:28:06.218Z,82.4
2018-04-19T00:29:07.985Z,82.5
2018-04-19T00:30:09.765Z,81.9
2018-04-19T00:31:11.502Z,82.8
2018-04-19T00:32:13.221Z,82.5
2018-04-19T00:33:15.001Z,82.0
2018-04-19T00:34:16.873Z,82.0
2018-04-19T00:35:18.483Z,82.0
2018-04-19T00:36:20.250Z,82.6
2018-04-19T00:37:21.985Z,82.7
2018-04-19T00:38:23.642Z,82.5
2018-04-19T00:39:25.603Z,82.6
2018-04-19T00:40:27.358Z,82.6
2018-04-19T00:41:29.077Z,82.7
2018-04-19T00:42:31.052Z,82.5
2018-04-19T00:43:32.699Z,82.6
2018-04-19T00:44:34.421Z,82.9
2018-04-19T00:45:36.143Z,82.6
2018-04-19T00:46:37.993Z,82.6
2018-04-19T00:47:39.726Z,82.6
2018-04-19T00:48:41.496Z,82.9
2018-04-19T00:49:43.240Z,82.6
2018-04-19T00:50:45.025Z,82.5
2018-04-19T00:51:46.754Z,82.5
2018-04-19T00:52:48.491Z,82.6
2018-04-19T00:53:50.258Z,82.7
2018-04-19T00:54:51.884Z,82.6
2018-04-19T00:55:53.666Z,82.5
2018-04-19T00:56:55.340Z,81.3
2018-04-19T00:57:57.228Z,81.5
2018-04-19T00:58:58.918Z,81.0
2018-04-19T01:00:00.690Z,81.0
2018-04-19T01:01:02.376Z,81.5
2018-04-19T01:02:04.082Z,80.7
2018-04-19T01:03:05.800Z,81.3
2018-04-19T01:04:07.672Z,80.9
2018-04-19T01:05:09.487Z,80.6
2018-04-19T01:06:11.198Z,80.5
2018-04-19T01:07:12.914Z,80.6
2018-04-19T01:08:14.632Z,80.9
2018-04-19T01:09:16.348Z,81.0
2018-04-19T01:10:18.417Z,80.6
2018-04-19T01:11:19.990Z,80.8
2018-04-19T01:12:21.960Z,80.0
2018-04-19T01:13:23.799Z,80.1
2018-04-19T01:14:25.549Z,80.2
2018-04-19T01:15:27.405Z,79.9
2018-04-19T01:16:29.097Z,80.2
2018-04-19T01:17:30.793Z,80.1
2018-04-19T01:18:32.524Z,80.0
2018-04-19T01:19:34.260Z,79.5
2018-04-19T01:20:35.941Z,79.7
2018-04-19T01:21:37.650Z,79.6
2018-04-19T01:22:39.310Z,80.1
2018-04-19T01:23:40.953Z,79.5
2018-04-19T01:24:42.668Z,79.7
2018-04-19T01:25:44.409Z,80.2
2018-04-19T01:26:46.120Z,80.0
2018-04-19T01:27:47.836Z,80.2
2018-04-19T01:28:49.584Z,79.9
2018-04-19T01:29:51.353Z,79.9
2018-04-19T01:30:53.144Z,80.3
2018-04-19T01:31:55.072Z,80.1
2018-04-19T01:32:56.803Z,80.1
2018-04-19T01:33:58.640Z,80.2
2018-04-19T01:35:00.382Z,79.8
2018-04-19T01:36:02.273Z,79.5
2018-04-19T01:37:03.965Z,79.3
2018-04-19T01:38:05.690Z,79.9
2018-04-19T01:39:07.388Z,79.6
2018-04-19T01:40:09.130Z,79.1
2018-04-19T01:41:10.977Z,79.4
2018-04-19T01:42:12.832Z,79.7
2018-04-19T01:43:14.598Z,79.9
2018-04-19T01:44:16.276Z,79.8
2018-04-19T01:45:17.938Z,79.8
2018-04-19T01:46:19.805Z,80.2
2018-04-19T01:47:21.457Z,80.1
2018-04-19T01:48:23.133Z,80.2
2018-04-19T01:49:24.879Z,80.6
2018-04-19T01:50:26.573Z,80.5
2018-04-19T01:51:28.423Z,81.2
2018-04-19T01:52:30.298Z,81.3
2018-04-19T01:53:32.023Z,81.3
2018-04-19T01:54:33.737Z,82.0
2018-04-19T01:55:35.458Z,82.1
2018-04-19T01:56:37.112Z,81.2
2018-04-19T01:57:38.800Z,81.4
2018-04-19T01:58:40.487Z,81.8
2018-04-19T01:59:42.221Z,81.4
2018-04-19T02:00:43.883Z,81.7
2018-04-19T02:01:45.504Z,82.1
2018-04-19T02:02:47.217Z,82.1
2018-04-19T02:03:48.912Z,82.2
2018-04-19T02:04:50.666Z,82.2
2018-04-19T02:05:52.314Z,82.5
2018-04-19T02:06:54.098Z,82.4
2018-04-19T02:07:55.795Z,82.8
2018-04-19T02:08:57.534Z,82.9
2018-04-19T02:09:59.261Z,83.0
2018-04-19T02:11:01.197Z,82.8
2018-04-19T02:12:02.963Z,82.9
2018-04-19T02:13:04.696Z,83.3
2018-04-19T02:14:06.560Z,83.1
2018-04-19T02:15:08.272Z,83.1
2018-04-19T02:16:10.343Z,83.5
2018-04-19T02:17:12.231Z,83.5
2018-04-19T02:18:13.961Z,83.5
2018-04-19T02:19:15.696Z,83.8
2018-04-19T02:20:17.310Z,83.7
2018-04-19T02:21:19.023Z,83.9
2018-04-19T02:22:20.701Z,83.8
2018-04-19T02:23:22.637Z,83.8
2018-04-19T02:24:24.433Z,84.3
2018-04-19T02:25:26.034Z,84.2
2018-04-19T02:26:27.712Z,84.1
2018-04-19T02:27:29.615Z,84.4
2018-04-19T02:28:31.286Z,84.1
2018-04-19T02:29:32.931Z,84.4
2018-04-19T02:30:34.972Z,84.4
2018-04-19T02:31:36.620Z,85.0
2018-04-19T02:32:38.305Z,84.7
2018-04-19T02:33:40.003Z,84.9
2018-04-19T02:34:41.717Z,84.8
2018-04-19T02:35:43.420Z,84.8
2018-04-19T02:36:45.382Z,85.3
2018-04-19T02:37:47.168Z,84.8
2018-04-19T02:38:49.176Z,85.5
2018-04-19T02:39:51.255Z,85.3
2018-04-19T02:40:52.955Z,85.4
2018-04-19T02:41:54.643Z,85.3
2018-04-19T02:42:56.363Z,85.7
2018-04-19T02:43:58.123Z,85.6
2018-04-19T02:44:59.862Z,85.9
2018-04-19T02:46:01.712Z,85.4
2018-04-19T02:47:03.467Z,85.7
2018-04-19T02:48:05.455Z,85.6
2018-04-19T02:49:07.272Z,85.8
2018-04-19T02:50:09.073Z,86.1
2018-04-19T02:51:10.777Z,86.3
2018-04-19T02:52:12.508Z,86.1
2018-04-19T02:53:14.282Z,86.1
2018-04-19T02:54:16.016Z,86.0
2018-04-19T02:55:17.987Z,85.4
2018-04-19T02:56:19.625Z,85.6
2018-04-19T02:57:21.429Z,85.8
2018-04-19T02:58:23.129Z,84.7
2018-04-19T02:59:24.900Z,84.6
2018-04-19T03:00:26.856Z,84.7
2018-04-19T03:01:28.662Z,85.1
2018-04-19T03:02:30.461Z,84.2
2018-04-19T03:03:32.434Z,84.3
2018-04-19T03:04:34.120Z,84.2
2018-04-19T03:05:35.819Z,84.9
2018-04-19T03:06:37.490Z,84.7
2018-04-19T03:07:39.222Z,84.8
2018-04-19T03:08:40.948Z,84.9
2018-04-19T03:09:42.604Z,85.3
2018-04-19T03:10:44.427Z,85.3
2018-04-19T03:11:46.284Z,85.2
2018-04-19T03:12:47.920Z,85.2
2018-04-19T03:13:49.757Z,85.3
2018-04-19T03:14:51.548Z,85.3
2018-04-19T03:15:53.265Z,85.0
2018-04-19T03:16:55.010Z,84.8
2018-04-19T03:17:56.895Z,84.9
2018-04-19T03:18:58.601Z,85.3
2018-04-19T03:20:00.552Z,85.2
2018-04-19T03:21:02.228Z,85.3
2018-04-19T03:22:04.167Z,85.1
2018-04-19T03:23:05.942Z,85.4
2018-04-19T03:24:07.632Z,85.3
2018-04-19T03:25:09.396Z,85.4
2018-04-19T03:26:11.255Z,85.3
2018-04-19T03:27:13.181Z,85.2
2018-04-19T03:28:14.813Z,85.3
2018-04-19T03:29:16.945Z,85.0
2018-04-19T03:30:18.621Z,85.3
2018-04-19T03:31:20.567Z,85.1
2018-04-19T03:32:22.615Z,85.7
2018-04-19T03:33:24.275Z,85.8
2018-04-19T03:34:25.964Z,85.9
2018-04-19T03:35:27.732Z,85.6
2018-04-19T03:36:29.406Z,85.9
2018-04-19T03:37:30.986Z,85.2
2018-04-19T03:38:33.165Z,86.1
2018-04-19T03:39:35.120Z,85.2
2018-04-19T03:40:36.767Z,85.2
2018-04-19T03:41:38.585Z,85.7
2018-04-19T03:42:40.323Z,85.7
2018-04-19T03:43:41.960Z,85.8
2018-04-19T03:44:43.639Z,85.7
2018-04-19T03:45:45.423Z,85.2
2018-04-19T03:46:47.199Z,85.6
2018-04-19T03:47:48.837Z,85.2
2018-04-19T03:48:50.743Z,85.7
2018-04-19T03:49:52.763Z,85.3
2018-04-19T03:50:54.656Z,85.2
2018-04-19T03:51:56.750Z,84.7
2018-04-19T03:52:58.307Z,85.0
2018-04-19T03:54:00.367Z,85.5
2018-04-19T03:55:02.056Z,85.4
2018-04-19T03:56:03.992Z,85.2
2018-04-19T03:57:05.695Z,85.7
2018-04-19T03:58:07.463Z,85.8
2018-04-19T03:59:09.196Z,85.7
2018-04-19T04:00:10.840Z,86.0
2018-04-19T04:01:12.612Z,85.9
2018-04-19T04:02:15.099Z,85.6
2018-04-19T04:03:16.902Z,85.7
2018-04-19T04:04:18.781Z,85.7
2018-04-19T04:05:20.501Z,85.7
2018-04-19T04:06:22.160Z,86.0
2018-04-19T04:07:24.035Z,85.3
2018-04-19T04:08:25.848Z,84.7
2018-04-19T04:09:27.516Z,84.9
2018-04-19T04:10:29.232Z,84.9
2018-04-19T04:11:31.113Z,84.8
2018-04-19T04:12:32.938Z,84.2
2018-04-19T04:13:34.697Z,84.6
2018-04-19T04:14:36.333Z,84.7
2018-04-19T04:15:37.986Z,84.7
2018-04-19T04:16:39.723Z,84.7
2018-04-19T04:17:41.399Z,84.6
2018-04-19T04:18:43.124Z,84.8
2018-04-19T04:19:44.875Z,84.6
2018-04-19T04:20:46.579Z,85.0
2018-04-19T04:21:48.622Z,85.1
2018-04-19T04:22:50.464Z,85.1
2018-04-19T04:23:52.839Z,84.9
2018-04-19T04:24:54.435Z,84.7
2018-04-19T04:25:56.201Z,85.1
2018-04-19T04:26:57.758Z,85.0
2018-04-19T04:27:59.628Z,84.5
2018-04-19T04:29:01.323Z,84.9
2018-04-19T04:30:03.051Z,84.8
2018-04-19T04:31:04.784Z,84.7
2018-04-19T04:32:06.482Z,84.6
2018-04-19T04:33:08.480Z,84.5
2018-04-19T04:34:10.312Z,84.9
2018-04-19T04:35:12.057Z,84.8
2018-04-19T04:36:13.892Z,84.9
2018-04-19T04:37:15.619Z,85.5
2018-04-19T04:38:17.285Z,85.4
2018-04-19T04:39:19.035Z,85.1
2018-04-19T04:40:20.773Z,85.9
2018-04-19T04:41:22.518Z,85.5
2018-04-19T04:42:24.319Z,85.3
2018-04-19T04:43:26.310Z,84.6
2018-04-19T04:44:28.157Z,84.5
2018-04-19T04:45:30.195Z,84.3
2018-04-19T04:46:32.035Z,84.2
2018-04-19T04:47:33.650Z,83.7
2018-04-19T04:48:35.310Z,83.4
2018-04-19T04:49:37.073Z,82.9
2018-04-19T04:50:38.879Z,83.0
2018-04-19T04:51:40.830Z,82.9
2018-04-19T04:52:42.492Z,82.9
2018-04-19T04:53:44.343Z,82.4
2018-04-19T04:54:46.001Z,82.0
2018-04-19T04:55:47.653Z,81.8
2018-04-19T04:56:49.409Z,81.2
2018-04-19T04:57:51.142Z,80.7
2018-04-19T04:58:53.063Z,80.0
2018-04-19T04:59:54.776Z,79.5
2018-04-19T05:00:56.940Z,78.4
2018-04-19T05:01:58.724Z,78.0
2018-04-19T05:03:00.426Z,78.5
2018-04-19T05:04:02.094Z,77.6
2018-04-19T05:05:03.730Z,77.7
2018-04-19T05:06:05.393Z,78.2
2018-04-19T05:07:07.167Z,77.2
2018-04-19T05:08:08.934Z,77.6
2018-04-19T05:09:10.737Z,76.8
2018-04-19T05:10:12.552Z,76.5
2018-04-19T05:11:14.157Z,75.1
2018-04-19T05:12:15.986Z,74.3
2018-04-19T05:13:17.632Z,73.8
2018-04-19T05:14:19.576Z,73.8
2018-04-19T05:15:21.201Z,72.2
2018-04-19T05:16:22.822Z,72.2
2018-04-19T05:17:24.467Z,71.1
2018-04-19T05:18:26.522Z,70.1
2018-04-19T05:19:28.475Z,69.4
2018-04-19T05:20:30.164Z,68.8
2018-04-19T05:21:31.989Z,68.6
2018-04-19T05:22:33.639Z,68.7
2018-04-19T05:23:35.395Z,67.6
2018-04-19T05:24:37.183Z,66.9
2018-04-19T05:25:39.089Z,67.0
2018-04-19T05:26:40.787Z,66.1
2018-04-19T05:27:42.706Z,64.7
2018-04-19T05:28:44.565Z,64.2
2018-04-19T05:29:46.326Z,63.7
2018-04-19T05:30:48.176Z,63.4
2018-04-19T05:31:49.902Z,62.5
2018-04-19T05:32:51.670Z,61.9
2018-04-19T05:33:53.506Z,63.0
2018-04-19T05:34:55.175Z,62.1
2018-04-19T05:35:56.863Z,62.8
2018-04-19T05:36:58.611Z,62.6
2018-04-19T05:38:00.435Z,62.5
2018-04-19T05:39:02.137Z,62.3
2018-04-19T05:40:03.794Z,62.3
2018-04-19T05:41:05.479Z,62.0
2018-04-19T05:42:07.237Z,61.5
2018-04-19T05:43:09.025Z,62.0
2018-04-19T05:44:10.739Z,61.2
2018-04-19T05:45:12.565Z,59.5
2018-04-19T05:46:14.361Z,60.0
2018-04-19T05:47:16.152Z,60.4
2018-04-19T05:48:17.871Z,60.6
2018-04-19T05:49:19.574Z,60.8
2018-04-19T05:50:21.197Z,60.5
2018-04-19T05:51:23.212Z,60.3
2018-04-19T05:52:24.992Z,58.9
2018-04-19T05:53:26.662Z,58.8
2018-04-19T05:54:28.410Z,58.6
2018-04-19T05:55:30.134Z,58.1
2018-04-19T05:56:31.920Z,57.5
2018-04-19T05:57:33.684Z,57.2
2018-04-19T05:58:35.381Z,57.5
2018-04-19T05:59:37.133Z,57.3
2018-04-19T06:00:38.808Z,57.1
2018-04-19T06:01:40.593Z,57.7
2018-04-19T06:02:42.396Z,57.3
2018-04-19T06:03:44.132Z,57.6
2018-04-19T06:04:45.903Z,58.2
2018-04-19T06:05:47.673Z,58.4
2018-04-19T06:06:49.442Z,58.7
2018-04-19T06:07:51.199Z,59.1
2018-04-19T06:08:52.946Z,59.4
2018-04-19T06:09:54.700Z,59.2
2018-04-19T06:10:56.308Z,59.0
2018-04-19T06:11:58.075Z,57.4
2018-04-19T06:12:59.807Z,56.6
2018-04-19T06:14:01.439Z,56.8
2018-04-19T06:15:03.252Z,56.3
2018-04-19T06:16:04.959Z,55.6
2018-04-19T06:17:06.674Z,56.2
2018-04-19T06:18:08.399Z,56.0
2018-04-19T06:19:10.168Z,56.2
2018-04-19T06:20:11.984Z,55.8
2018-04-19T06:21:13.698Z,56.0
2018-04-19T06:22:15.359Z,55.6
2018-04-19T06:23:17.140Z,55.7
2018-04-19T06:24:18.785Z,55.1
2018-04-19T06:25:20.469Z,54.4
2018-04-19T06:26:22.254Z,54.7
2018-04-19T06:27:24.023Z,55.4
2018-04-19T06:28:25.709Z,55.8
2018-04-19T06:29:27.327Z,55.3
2018-04-19T06:30:29.087Z,54.6
2018-04-19T06:31:30.819Z,54.8
2018-04-19T06:32:32.659Z,54.6
2018-04-19T06:33:34.307Z,54.0
2018-04-19T06:34:36.060Z,54.1
2018-04-19T06:35:37.765Z,53.2
2018-04-19T06:36:39.466Z,53.3
2018-04-19T06:37:41.264Z,52.6
2018-04-19T06:38:42.953Z,51.0
2018-04-19T06:39:44.590Z,52.3
2018-04-19T06:40:46.287Z,51.0
2018-04-19T06:41:47.998Z,51.7
2018-04-19T06:42:49.590Z,50.3
2018-04-19T06:43:51.271Z,50.1
2018-04-19T06:44:53.032Z,48.6
2018-04-19T06:45:54.764Z,49.2
2018-04-19T06:46:56.529Z,47.3
2018-04-19T06:47:58.181Z,48.0
2018-04-19T06:48:59.969Z,46.3
2018-04-19T06:50:01.716Z,46.2
2018-04-19T06:51:03.473Z,46.0
2018-04-19T06:52:05.196Z,45.8
2018-04-19T06:53:06.821Z,45.1
2018-04-19T06:54:08.531Z,45.1
2018-04-19T06:55:10.207Z,43.6
2018-04-19T06:56:11.997Z,44.6
2018-04-19T06:57:13.721Z,44.0
2018-04-19T06:58:15.359Z,45.1
2018-04-19T06:59:17.101Z,44.2
2018-04-19T07:00:18.756Z,44.4
2018-04-19T07:01:20.487Z,43.7
2018-04-19T07:02:22.165Z,44.0
2018-04-19T07:03:23.834Z,44.2
2018-04-19T07:04:25.521Z,43.4
2018-04-19T07:05:27.045Z,43.5
2018-04-19T07:06:28.774Z,42.7
2018-04-19T07:07:30.604Z,41.8
2018-04-19T07:08:32.241Z,41.2
2018-04-19T07:09:34.043Z,40.9
2018-04-19T07:10:35.729Z,41.2
2018-04-19T07:11:37.375Z,42.9
2018-04-19T07:12:39.106Z,43.3
2018-04-19T07:13:40.885Z,43.1
2018-04-19T07:14:42.720Z,42.3
2018-04-19T07:15:44.452Z,41.2
2018-04-19T07:16:46.148Z,41.1
2018-04-19T07:17:47.818Z,42.6
2018-04-19T07:18:49.599Z,40.9
2018-04-19T07:19:51.361Z,42.0
2018-04-19T07:20:53.050Z,41.2
2018-04-19T07:21:54.647Z,42.7
2018-04-19T07:22:56.171Z,42.3
2018-04-19T07:23:57.794Z,43.8
2018-04-19T07:24:59.629Z,41.4
2018-04-19T07:26:01.244Z,42.9
2018-04-19T07:27:02.980Z,40.5
2018-04-19T07:28:04.605Z,41.0
2018-04-19T07:29:06.229Z,41.3
2018-04-19T07:30:07.948Z,41.3
2018-04-19T07:31:09.701Z,38.3
2018-04-19T07:32:11.457Z,38.0
2018-04-19T07:33:13.000Z,38.0
2018-04-19T07:34:14.646Z,38.1
2018-04-19T07:35:16.452Z,38.5
2018-04-19T07:36:18.275Z,38.9
2018-04-19T07:37:19.984Z,40.0
2018-04-19T07:38:21.702Z,40.7
2018-04-19T07:39:23.408Z,40.1
2018-04-19T07:40:25.063Z,39.5
2018-04-19T07:41:26.885Z,38.2
2018-04-19T07:42:28.636Z,38.4
2018-04-19T07:43:30.143Z,39.8
2018-04-19T07:44:31.953Z,37.9
2018-04-19T07:45:33.702Z,39.1
2018-04-19T07:46:35.450Z,37.8
2018-04-19T07:47:37.214Z,36.8
2018-04-19T07:48:38.721Z,35.7
2018-04-19T07:49:40.446Z,34.6
2018-04-19T07:50:42.161Z,35.8
2018-04-19T07:51:43.806Z,36.9
2018-04-19T07:52:45.468Z,36.9
2018-04-19T07:53:46.975Z,37.2
2018-04-19T07:54:48.642Z,35.7
2018-04-19T07:55:50.366Z,35.5
2018-04-19T07:56:52.175Z,35.4
2018-04-19T07:57:53.972Z,34.8
2018-04-19T07:58:55.666Z,36.3
2018-04-19T07:59:57.527Z,34.7
2018-04-19T08:00:59.299Z,32.2
2018-04-19T08:02:00.959Z,32.9
2018-04-19T08:03:02.685Z,34.1
2018-04-19T08:04:04.331Z,33.3
2018-04-19T08:05:06.171Z,34.0
2018-04-19T08:06:07.968Z,34.2
2018-04-19T08:07:09.784Z,35.3
2018-04-19T08:08:11.527Z,37.0
2018-04-19T08:09:13.786Z,36.1
2018-04-19T08:10:15.549Z,35.3
2018-04-19T08:11:17.470Z,36.6
2018-04-19T08:12:19.192Z,36.5
2018-04-19T08:13:20.961Z,35.5
2018-04-19T08:14:22.475Z,35.3
2018-04-19T08:15:24.277Z,35.6
2018-04-19T08:16:25.861Z,34.8
2018-04-19T08:17:27.787Z,35.7
2018-04-19T08:18:29.557Z,35.4
2018-04-19T08:19:31.373Z,35.7
2018-04-19T08:20:33.139Z,35.4
2018-04-19T08:21:34.750Z,34.8
2018-04-19T08:22:36.506Z,34.7
2018-04-19T08:23:38.354Z,34.6
2018-04-19T08:24:40.127Z,35.3
2018-04-19T08:25:41.831Z,33.6
2018-04-19T08:26:43.309Z,33.4
2018-04-19T08:27:45.129Z,32.5
2018-04-19T08:28:46.625Z,34.5
2018-04-19T08:29:48.360Z,34.8
2018-04-19T08:30:50.094Z,32.9
2018-04-19T08:31:51.973Z,33.8
2018-04-19T08:32:53.682Z,33.7
2018-04-19T08:33:55.399Z,33.4
2018-04-19T08:34:57.034Z,32.7
2018-04-19T08:35:58.837Z,33.8
2018-04-19T08:37:00.615Z,32.3
2018-04-19T08:38:02.559Z,32.5
2018-04-19T08:39:04.091Z,33.9
2018-04-19T08:40:05.597Z,33.4
2018-04-19T08:41:07.178Z,33.5
2018-04-19T08:42:08.947Z,33.4
2018-04-19T08:43:10.617Z,34.0
2018-04-19T08:44:12.426Z,31.6
2018-04-19T08:45:14.113Z,31.6
2018-04-19T08:46:15.775Z,32.5
2018-04-19T08:47:17.579Z,32.8
2018-04-19T08:48:19.377Z,32.8
2018-04-19T08:49:21.021Z,33.2
2018-04-19T08:50:22.722Z,33.0
2018-04-19T08:51:24.263Z,31.2
2018-04-19T08:52:25.847Z,32.4
2018-04-19T08:53:27.523Z,32.0
2018-04-19T08:54:29.177Z,32.0
2018-04-19T08:55:30.785Z,31.5
2018-04-19T08:56:32.548Z,31.7
2018-04-19T08:57:34.265Z,32.2
2018-04-19T08:58:35.756Z,31.8
2018-04-19T08:59:37.488Z,31.0
2018-04-19T09:00:39.258Z,32.8
2018-04-19T09:01:40.762Z,34.6
2018-04-19T09:02:42.259Z,33.6
2018-04-19T09:03:43.972Z,32.9
2018-04-19T09:04:45.763Z,32.7
2018-04-19T09:05:47.428Z,32.6
2018-04-19T09:06:49.123Z,31.8
2018-04-19T09:07:50.689Z,33.1
2018-04-19T09:08:52.473Z,31.7
2018-04-19T09:09:54.162Z,31.7
2018-04-19T09:10:55.962Z,31.9
2018-04-19T09:11:57.563Z,31.2
2018-04-19T09:12:59.376Z,30.4
2018-04-19T09:14:01.077Z,31.0
2018-04-19T09:15:02.894Z,30.7
2018-04-19T09:16:04.571Z,31.7
2018-04-19T09:17:06.396Z,31.6
2018-04-19T09:18:08.239Z,31.6
2018-04-19T09:19:09.933Z,31.4
2018-04-19T09:20:11.592Z,31.4
2018-04-19T09:21:13.145Z,31.1
2018-04-19T09:22:14.903Z,30.9
2018-04-19T09:23:16.619Z,32.4
2018-04-19T09:24:18.361Z,30.7
2018-04-19T09:25:20.103Z,31.1
2018-04-19T09:26:21.840Z,30.9
2018-04-19T09:27:23.600Z,31.4
2018-04-19T09:28:25.324Z,30.1
2018-04-19T09:29:27.078Z,30.4
2018-04-19T09:30:28.865Z,31.3
2018-04-19T09:31:30.583Z,30.7
2018-04-19T09:32:32.391Z,31.0
2018-04-19T09:33:34.112Z,31.7
2018-04-19T09:34:35.805Z,31.3
2018-04-19T09:35:37.536Z,31.0
2018-04-19T09:36:39.221Z,30.8
2018-04-19T09:37:40.932Z,30.7
2018-04-19T09:38:42.439Z,31.6
2018-04-19T09:39:44.217Z,31.7
2018-04-19T09:40:45.875Z,30.5
2018-04-19T09:41:47.680Z,30.3
2018-04-19T09:42:49.548Z,29.8
2018-04-19T09:43:51.341Z,30.6
2018-04-19T09:44:53.042Z,30.1
2018-04-19T09:45:54.723Z,30.5
2018-04-19T09:46:56.423Z,30.5
2018-04-19T09:47:58.140Z,30.8
2018-04-19T09:48:59.855Z,29.6
2018-04-19T09:50:01.512Z,30.1
2018-04-19T09:51:03.310Z,28.4
2018-04-19T09:52:04.860Z,28.2
2018-04-19T09:53:06.379Z,28.6
2018-04-19T09:54:08.158Z,29.0
2018-04-19T09:55:09.811Z,30.1
2018-04-19T09:56:11.464Z,29.0
2018-04-19T09:57:13.091Z,28.1
2018-04-19T09:58:14.809Z,29.0
2018-04-19T09:59:16.553Z,29.5
2018-04-19T10:00:18.238Z,28.8
2018-04-19T10:01:19.698Z,28.2
2018-04-19T10:02:21.925Z,27.3
2018-04-19T10:03:23.372Z,26.1
2018-04-19T10:04:25.141Z,27.3
2018-04-19T10:05:26.901Z,27.6
2018-04-19T10:06:28.582Z,28.8
2018-04-19T10:07:30.108Z,28.2
2018-04-19T10:08:31.587Z,26.3
2018-04-19T10:09:33.157Z,26.2
2018-04-19T10:10:34.842Z,27.3
2018-04-19T10:11:36.497Z,29.0
2018-04-19T10:12:38.500Z,29.1
2018-04-19T10:13:40.021Z,28.3
2018-04-19T10:14:41.601Z,26.1
2018-04-19T10:15:43.132Z,26.2
2018-04-19T10:16:44.613Z,25.7
2018-04-19T10:17:46.266Z,24.8
2018-04-19T10:18:47.987Z,24.9
2018-04-19T10:19:49.666Z,24.9
2018-04-19T10:20:51.420Z,25.0
2018-04-19T10:21:53.079Z,25.5
2018-04-19T10:22:54.825Z,24.1
2018-04-19T10:23:56.630Z,26.1
2018-04-19T10:24:58.284Z,25.6
2018-04-19T10:26:00.057Z,24.9
2018-04-19T10:27:01.911Z,24.8
2018-04-19T10:28:03.552Z,24.0
2018-04-19T10:29:05.308Z,25.2
2018-04-19T10:30:06.987Z,23.9
2018-04-19T10:31:08.640Z,22.9
2018-04-19T10:32:10.320Z,24.8
2018-04-19T10:33:12.024Z,25.7
2018-04-19T10:34:13.692Z,24.0
2018-04-19T10:35:15.648Z,25.8
2018-04-19T10:36:17.383Z,25.2
2018-04-19T10:37:19.192Z,23.9
2018-04-19T10:38:20.877Z,22.6
2018-04-19T10:39:22.372Z,22.8
2018-04-19T10:40:24.113Z,23.1
2018-04-19T10:41:25.864Z,21.4
2018-04-19T10:42:27.507Z,22.1
2018-04-19T10:43:29.222Z,22.7
2018-04-19T10:44:30.883Z,22.4
2018-04-19T10:45:32.732Z,22.6
2018-04-19T10:46:34.396Z,22.7
2018-04-19T10:47:36.209Z,22.6
2018-04-19T10:48:37.975Z,21.3
2018-04-19T10:49:39.701Z,22.7
2018-04-19T10:50:41.497Z,22.9
2018-04-19T10:51:43.109Z,20.9
2018-04-19T10:52:44.742Z,21.4
2018-04-19T10:53:46.472Z,22.4
2018-04-19T10:54:48.342Z,22.1
2018-04-19T10:55:50.015Z,23.3
2018-04-19T10:56:51.858Z,22.3
2018-04-19T10:57:53.548Z,21.6
2018-04-19T10:58:55.257Z,22.5
2018-04-19T10:59:56.994Z,22.8
2018-04-19T11:00:58.717Z,22.1
2018-04-19T11:02:00.279Z,22.8
2018-04-19T11:03:02.013Z,24.1
2018-04-19T11:04:03.715Z,23.7
2018-04-19T11:05:05.159Z,23.2
2018-04-19T11:06:06.898Z,23.0
2018-04-19T11:07:08.591Z,23.1
2018-04-19T11:08:10.351Z,22.8
2018-04-19T11:09:12.017Z,23.0
2018-04-19T11:10:13.766Z,22.8
2018-04-19T11:11:15.538Z,23.7
2018-04-19T11:12:17.267Z,23.0
2018-04-19T11:13:18.917Z,22.3
2018-04-19T11:14:20.601Z,22.7
2018-04-19T11:15:22.264Z,24.2
2018-04-19T11:16:24.183Z,22.9
2018-04-19T11:17:25.794Z,22.1
2018-04-19T11:18:27.605Z,22.6
2018-04-19T11:19:29.360Z,22.1
2018-04-19T11:20:31.016Z,22.0
2018-04-19T11:21:32.639Z,21.4
2018-04-19T11:22:34.273Z,20.8
2018-04-19T11:23:35.932Z,21.3
2018-04-19T11:24:37.673Z,20.1
2018-04-19T11:25:39.640Z,21.4
2018-04-19T11:26:41.174Z,21.5
2018-04-19T11:27:42.661Z,21.1
2018-04-19T11:28:44.419Z,21.6
2018-04-19T11:29:46.121Z,21.4
2018-04-19T11:30:47.795Z,21.4
2018-04-19T11:31:49.599Z,20.2
2018-04-19T11:32:51.457Z,20.4
2018-04-19T11:33:53.550Z,21.1
2018-04-19T11:34:55.260Z,20.8
2018-04-19T11:35:56.736Z,20.9
2018-04-19T11:36:58.335Z,20.4
2018-04-19T11:37:59.989Z,20.1
2018-04-19T11:39:01.696Z,20.0
2018-04-19T11:40:03.393Z,19.2
2018-04-19T11:41:05.068Z,20.4
2018-04-19T11:42:06.924Z,20.3
2018-04-19T11:43:08.660Z,20.1
2018-04-19T11:44:10.161Z,20.6
2018-04-19T11:45:12.048Z,18.5
2018-04-19T11:46:13.791Z,19.2
2018-04-19T11:47:15.448Z,18.5
2018-04-19T11:48:17.084Z,19.4
2018-04-19T11:49:18.615Z,19.7
2018-04-19T11:50:20.800Z,20.2
2018-04-19T11:51:22.674Z,18.8
2018-04-19T11:52:24.817Z,19.2
2018-04-19T11:53:26.548Z,18.5
2018-04-19T11:54:28.330Z,17.2
2018-04-19T11:55:30.242Z,18.7
2018-04-19T11:56:31.984Z,18.5
2018-04-19T11:57:33.715Z,18.8
2018-04-19T11:58:35.562Z,19.4
2018-04-19T11:59:37.237Z,18.5
2018-04-19T12:00:39.111Z,18.7
2018-04-19T12:01:40.786Z,20.0
2018-04-19T12:02:42.324Z,19.5
2018-04-19T12:03:44.126Z,20.4
2018-04-19T12:04:45.875Z,20.1
2018-04-19T12:05:47.645Z,19.3
2018-04-19T12:06:49.337Z,19.3
2018-04-19T12:07:51.008Z,19.8
2018-04-19T12:08:52.656Z,19.6
2018-04-19T12:09:54.393Z,18.6
2018-04-19T12:10:56.156Z,18.7
2018-04-19T12:11:57.925Z,19.7
2018-04-19T12:12:59.732Z,20.2
2018-04-19T12:14:01.258Z,19.3
2018-04-19T12:15:03.085Z,18.6
2018-04-19T12:16:04.718Z,19.2
2018-04-19T12:17:06.466Z,19.4
2018-04-19T12:18:08.310Z,19.5
2018-04-19T12:19:10.034Z,18.7
2018-04-19T12:20:11.845Z,18.2
2018-04-19T12:21:14.615Z,18.0
2018-04-19T12:22:16.324Z,17.9
2018-04-19T12:23:18.077Z,17.7
2018-04-19T12:24:19.897Z,18.7
2018-04-19T12:25:21.497Z,17.8
2018-04-19T12:26:23.077Z,17.7
2018-04-19T12:27:25.067Z,16.9
2018-04-19T12:28:26.782Z,17.1
2018-04-19T12:29:28.463Z,16.3
2018-04-19T12:30:30.642Z,16.1
2018-04-19T12:31:32.272Z,16.0
2018-04-19T12:32:34.026Z,16.3
2018-04-19T12:33:35.802Z,16.7
2018-04-19T12:34:37.625Z,16.1
2018-04-19T12:35:39.295Z,16.2
2018-04-19T12:36:41.026Z,17.0
2018-04-19T12:37:42.668Z,15.5
2018-04-19T12:38:44.423Z,15.0
2018-04-19T12:39:46.175Z,16.0
2018-04-19T12:40:47.841Z,14.9
2018-04-19T12:41:49.500Z,15.3
2018-04-19T12:42:51.338Z,15.3
2018-04-19T12:43:53.148Z,15.9
2018-04-19T12:44:54.881Z,16.0
2018-04-19T12:45:56.700Z,16.2
2018-04-19T12:46:58.543Z,15.8
2018-04-19T12:48:00.282Z,16.3
2018-04-19T12:49:01.994Z,16.5
2018-04-19T12:50:03.739Z,16.5
2018-04-19T12:51:05.519Z,16.8
2018-04-19T12:52:07.322Z,17.4
2018-04-19T12:53:08.981Z,17.3
2018-04-19T12:54:10.727Z,15.2
2018-04-19T12:55:12.631Z,15.8
2018-04-19T12:56:14.411Z,15.9
2018-04-19T12:57:16.109Z,16.3
2018-04-19T12:58:17.919Z,16.0
2018-04-19T12:59:19.646Z,16.0
2018-04-19T13:00:21.472Z,15.4
2018-04-19T13:01:23.182Z,15.6
2018-04-19T13:02:25.079Z,15.3
2018-04-19T13:03:26.787Z,15.9
2018-04-19T13:04:28.586Z,14.9
2018-04-19T13:05:30.295Z,14.5
2018-04-19T13:06:31.997Z,13.0
2018-04-19T13:07:33.711Z,14.3
2018-04-19T13:08:35.524Z,13.6
2018-04-19T13:09:37.284Z,13.6
2018-04-19T13:10:39.010Z,12.9
2018-04-19T13:11:40.707Z,14.0
2018-04-19T13:12:42.597Z,14.0
2018-04-19T13:13:44.314Z,14.2
2018-04-19T13:14:45.885Z,13.1
2018-04-19T13:15:47.388Z,13.2
2018-04-19T13:16:48.959Z,13.9
2018-04-19T13:17:50.751Z,13.5
2018-04-19T13:18:52.438Z,13.0
2018-04-19T13:19:53.926Z,12.5
2018-04-19T13:20:55.390Z,13.2
2018-04-19T13:21:57.226Z,13.3
2018-04-19T13:22:59.033Z,13.1
2018-04-19T13:24:00.743Z,12.5
2018-04-19T13:25:02.325Z,13.0
2018-04-19T13:26:03.752Z,12.3
2018-04-19T13:27:05.209Z,13.1
2018-04-19T13:28:06.836Z,13.5
2018-04-19T13:29:08.632Z,12.5
2018-04-19T13:30:10.469Z,12.7
2018-04-19T13:31:12.202Z,12.7
2018-04-19T13:32:13.997Z,12.3
2018-04-19T13:33:15.705Z,13.0
2018-04-19T13:34:17.407Z,14.0
2018-04-19T13:35:19.196Z,14.8
2018-04-19T13:36:20.990Z,13.9
2018-04-19T13:37:22.688Z,14.3
2018-04-19T13:38:24.378Z,14.8
2018-04-19T13:39:26.087Z,14.6
2018-04-19T13:40:27.575Z,15.1
2018-04-19T13:41:29.412Z,15.0